createdAt,value
2024-02-24T00:00:33.197Z,56.60
2024-02-24T00:18:30.878Z,55.08
2024-02-24T01:14:03.014Z,61.32
2024-02-24T01:19:24.067Z,61.35
2024-02-24T01:21:58.964Z,60.91
2024-02-24T01:24:57.374Z,61.43
2024-02-24T01:28:05.486Z,61.97
2024-02-24T01:31:26.125Z,62.83
2024-02-24T01:33:55.478Z,64.03
2024-02-24T01:36:23.961Z,64.31
2024-02-24T01:38:57.693Z,64.56
2024-02-24T01:41:26.810Z,64.28
2024-02-24T01:43:56.649Z,64.16
2024-02-24T01:46:25.103Z,64.43
2024-02-24T01:48:53.578Z,64.43
2024-02-24T01:51:25.116Z,64.24
2024-02-24T01:57:04.233Z,63.80
2024-02-24T01:59:58.564Z,63.67
2024-02-24T02:12:28.705Z,65.56
2024-02-24T02:17:42.886Z,66.78
2024-02-24T02:22:52.656Z,68.26
2024-02-24T02:25:21.207Z,68.47
2024-02-24T02:28:01.096Z,67.76
2024-02-24T02:30:29.884Z,68.02
2024-02-24T02:33:05.014Z,67.96
2024-02-24T02:35:47.254Z,69.28
2024-02-24T02:38:18.821Z,69.89
2024-02-24T02:47:17.636Z,70.91
2024-02-24T03:36:59.801Z,78.60
2024-02-24T03:39:38.223Z,78.17
2024-02-24T03:42:07.312Z,78.73
2024-02-24T03:44:36.017Z,79.39
2024-02-24T03:47:04.386Z,79.03
2024-02-24T03:49:32.838Z,79.13
2024-02-24T03:52:01.361Z,78.39
2024-02-24T03:54:29.673Z,78.45
2024-02-24T03:56:58.039Z,78.46
2024-02-24T03:59:26.391Z,78.61
2024-02-24T04:01:54.712Z,78.15
2024-02-24T04:04:23.046Z,78.31
2024-02-24T04:06:51.434Z,78.43
2024-02-24T04:09:19.801Z,78.14
2024-02-24T04:11:50.638Z,78.49
2024-02-24T04:14:19.129Z,79.28
2024-02-24T04:16:47.962Z,78.62
2024-02-24T04:19:16.295Z,78.74
2024-02-24T04:21:44.712Z,78.77
2024-02-24T04:24:13.054Z,78.74
2024-02-24T04:26:41.555Z,79.01
2024-02-24T04:29:09.981Z,78.67
2024-02-24T04:31:38.411Z,79.23
2024-02-24T04:34:06.909Z,79.43
2024-02-24T04:36:35.814Z,79.44
2024-02-24T04:39:04.060Z,80.70
2024-02-24T04:41:32.364Z,81.02
2024-02-24T04:44:00.879Z,80.70
2024-02-24T04:46:29.143Z,80.47
2024-02-24T04:48:57.590Z,81.10
2024-02-24T04:51:25.924Z,81.15
2024-02-24T04:53:56.435Z,82.16
2024-02-24T04:56:24.865Z,82.18
2024-02-24T04:58:53.330Z,81.58
2024-02-24T05:01:23.704Z,81.75
2024-02-24T05:03:52.093Z,82.22
2024-02-24T05:06:20.542Z,82.54
2024-02-24T05:08:48.957Z,82.80
2024-02-24T05:11:17.634Z,82.80
2024-02-24T05:13:46.245Z,82.32
2024-02-24T05:16:15.867Z,82.30
2024-02-24T05:18:44.331Z,82.56
2024-02-24T05:21:24.769Z,83.13
2024-02-24T05:23:53.271Z,83.25
2024-02-24T05:26:29.042Z,83.21
2024-02-24T05:28:58.170Z,83.28
2024-02-24T05:31:26.557Z,83.01
2024-02-24T05:33:56.474Z,82.83
2024-02-24T05:36:26.743Z,82.77
2024-02-24T05:38:55.032Z,82.47
2024-02-24T05:41:23.390Z,82.21
2024-02-24T05:43:52.239Z,82.14
2024-02-24T05:46:20.647Z,81.54
2024-02-24T05:48:49.118Z,81.27
2024-02-24T05:51:18.845Z,80.87
2024-02-24T05:53:47.280Z,80.32
2024-02-24T05:56:15.935Z,80.85
2024-02-24T05:58:44.437Z,81.60
2024-02-24T06:01:16.600Z,81.63
2024-02-24T06:03:45.335Z,82.12
2024-02-24T06:06:14.523Z,82.45
2024-02-24T06:08:43.057Z,82.49
2024-02-24T06:11:11.985Z,82.71
2024-02-24T06:13:40.437Z,82.58
2024-02-24T06:16:09.751Z,82.66
2024-02-24T06:18:38.223Z,83.02
2024-02-24T06:21:10.981Z,82.60
2024-02-24T06:23:39.470Z,82.55
2024-02-24T06:26:07.886Z,82.37
2024-02-24T06:28:37.496Z,81.71
2024-02-24T06:31:06.041Z,81.68
2024-02-24T06:33:34.678Z,81.63
2024-02-24T06:36:04.908Z,81.97
2024-02-24T06:38:33.248Z,81.92
2024-02-24T06:41:01.744Z,81.92
2024-02-24T06:43:30.065Z,82.07
2024-02-24T06:46:00.491Z,82.03
2024-02-24T06:48:29.401Z,82.06
2024-02-24T06:50:58.024Z,81.70
2024-02-24T06:53:26.351Z,81.98
2024-02-24T06:55:55.229Z,80.62
2024-02-24T06:58:23.759Z,80.68
2024-02-24T07:00:52.055Z,80.67
2024-02-24T07:03:22.366Z,80.70
2024-02-24T07:05:50.822Z,80.92
2024-02-24T07:08:19.299Z,81.19
2024-02-24T07:10:47.609Z,80.91
2024-02-24T07:13:16.015Z,80.56
2024-02-24T07:15:44.365Z,80.51
2024-02-24T07:18:12.768Z,80.25
2024-02-24T07:20:41.215Z,80.41
2024-02-24T07:23:09.606Z,80.74
2024-02-24T07:25:39.633Z,81.22
2024-02-24T07:28:08.439Z,81.36
2024-02-24T07:30:36.845Z,81.12
2024-02-24T07:33:05.665Z,81.17
2024-02-24T07:35:34.231Z,81.29
2024-02-24T07:38:02.744Z,80.82
2024-02-24T07:40:31.323Z,80.73
2024-02-24T07:42:59.989Z,80.80
2024-02-24T07:45:28.560Z,80.70
2024-02-24T07:47:57.287Z,80.32
2024-02-24T07:50:25.946Z,80.27
2024-02-24T07:52:54.335Z,80.16
2024-02-24T07:55:23.227Z,80.17
2024-02-24T07:57:51.592Z,80.35
2024-02-24T08:00:21.586Z,79.93
2024-02-24T08:02:50.003Z,79.87
2024-02-24T08:05:20.338Z,79.96
2024-02-24T08:07:48.726Z,80.03
2024-02-24T08:10:18.088Z,80.17
2024-02-24T08:12:46.451Z,80.13
2024-02-24T08:15:14.869Z,80.17
2024-02-24T08:17:46.356Z,80.20
2024-02-24T08:20:15.497Z,79.85
2024-02-24T08:22:45.775Z,79.68
2024-02-24T08:25:14.110Z,79.14
2024-02-24T08:27:42.464Z,78.84
2024-02-24T08:30:11.339Z,78.65
2024-02-24T08:32:39.888Z,78.72
2024-02-24T08:35:08.887Z,78.72
2024-02-24T08:37:37.389Z,79.18
2024-02-24T08:40:06.109Z,79.23
2024-02-24T08:42:34.414Z,79.44
2024-02-24T08:45:02.758Z,80.18
2024-02-24T08:47:31.184Z,80.19
2024-02-24T08:49:59.564Z,79.74
2024-02-24T08:52:35.482Z,80.07
2024-02-24T08:55:11.035Z,79.74
2024-02-24T08:57:39.301Z,80.13
2024-02-24T09:00:08.362Z,80.12
2024-02-24T09:02:36.781Z,80.34
2024-02-24T09:05:06.029Z,80.66
2024-02-24T09:07:34.371Z,81.01
2024-02-24T09:10:04.896Z,80.61
2024-02-24T09:12:34.829Z,80.50
2024-02-24T09:15:03.277Z,80.98
2024-02-24T09:17:31.918Z,81.29
2024-02-24T09:20:02.389Z,81.63
2024-02-24T09:22:30.793Z,81.59
2024-02-24T09:25:00.974Z,81.82
2024-02-24T09:27:29.252Z,82.32
2024-02-24T09:29:57.739Z,81.84
2024-02-24T09:32:26.205Z,81.25
2024-02-24T09:34:55.056Z,81.68
2024-02-24T09:37:23.408Z,81.28
2024-02-24T09:39:51.687Z,81.37
2024-02-24T09:42:20.012Z,81.44
2024-02-24T09:44:49.505Z,81.02
2024-02-24T09:47:19.531Z,80.98
2024-02-24T09:49:48.146Z,81.37
2024-02-24T09:52:19.449Z,81.35
2024-02-24T09:54:48.579Z,81.47
2024-02-24T09:57:24.699Z,81.38
2024-02-24T09:59:54.211Z,80.91
2024-02-24T10:02:22.808Z,80.99
2024-02-24T10:04:53.306Z,81.03
2024-02-24T10:07:21.731Z,81.28
2024-02-24T10:09:50.131Z,81.31
2024-02-24T10:12:19.027Z,80.98
2024-02-24T10:14:47.493Z,80.70
2024-02-24T10:17:17.196Z,80.75
2024-02-24T10:19:48.446Z,81.14
2024-02-24T10:22:19.824Z,81.63
2024-02-24T10:24:48.673Z,81.61
2024-02-24T10:27:20.116Z,81.55
2024-02-24T10:29:52.978Z,81.79
2024-02-24T10:32:23.633Z,81.29
2024-02-24T10:34:54.826Z,81.44
2024-02-24T10:37:25.562Z,81.54
2024-02-24T10:39:55.666Z,81.65
2024-02-24T10:42:28.153Z,81.91
2024-02-24T10:44:58.041Z,81.73
2024-02-24T10:47:27.212Z,82.16
2024-02-24T10:49:55.692Z,82.03
2024-02-24T10:52:24.830Z,82.42
2024-02-24T10:54:54.497Z,82.10
2024-02-24T10:57:23.101Z,82.48
2024-02-24T10:59:51.589Z,82.43
2024-02-24T11:02:22.979Z,82.15
2024-02-24T11:04:53.740Z,81.96
2024-02-24T11:07:25.455Z,81.88
2024-02-24T11:09:56.960Z,81.72
2024-02-24T11:12:25.288Z,82.23
2024-02-24T11:14:57.311Z,81.85
2024-02-24T11:17:48.939Z,81.26
2024-02-24T11:20:36.093Z,81.77
2024-02-24T11:23:26.960Z,81.63
2024-02-24T11:26:27.323Z,81.81
2024-02-24T11:29:05.907Z,81.59
2024-02-24T11:31:37.143Z,81.54
2024-02-24T11:34:13.178Z,81.41
2024-02-24T11:36:43.277Z,81.55
2024-02-24T11:39:15.177Z,81.30
2024-02-24T11:41:43.845Z,81.09
2024-02-24T11:44:14.305Z,81.01
2024-02-24T11:46:47.796Z,81.02
2024-02-24T11:49:19.302Z,81.18
2024-02-24T11:51:47.915Z,80.92
2024-02-24T11:54:19.042Z,81.03
2024-02-24T11:56:47.510Z,81.26
2024-02-24T11:59:17.658Z,81.71
2024-02-24T12:01:47.100Z,81.65
2024-02-24T12:04:24.391Z,81.91
2024-02-24T12:06:53.535Z,81.40
2024-02-24T12:09:22.550Z,81.53
2024-02-24T12:11:51.257Z,81.72
2024-02-24T12:14:20.289Z,81.73
2024-02-24T12:16:49.228Z,81.90
2024-02-24T12:19:17.698Z,81.68
2024-02-24T12:21:50.063Z,81.43
2024-02-24T12:24:39.980Z,81.41
2024-02-24T12:27:11.395Z,81.43
2024-02-24T12:29:39.766Z,81.46
2024-02-24T12:32:08.971Z,81.33
2024-02-24T12:34:38.587Z,81.42
2024-02-24T12:37:09.318Z,81.32
2024-02-24T12:39:42.883Z,81.63
2024-02-24T12:42:11.242Z,81.56
2024-02-24T12:44:39.693Z,81.67
2024-02-24T12:47:08.165Z,81.71
2024-02-24T12:49:37.238Z,81.64
2024-02-24T12:52:06.565Z,81.80
2024-02-24T12:54:35.039Z,81.53
2024-02-24T12:57:03.590Z,81.65
2024-02-24T12:59:32.021Z,81.86
2024-02-24T13:02:00.564Z,81.80
2024-02-24T13:04:31.948Z,81.79
2024-02-24T13:07:00.935Z,82.14
2024-02-24T13:09:29.476Z,82.31
2024-02-24T13:11:58.807Z,82.05
2024-02-24T13:14:27.424Z,81.97
2024-02-24T13:16:56.040Z,82.12
2024-02-24T13:19:24.440Z,82.17
2024-02-24T13:21:53.065Z,82.23
2024-02-24T13:24:21.475Z,82.09
2024-02-24T13:26:49.817Z,81.98
2024-02-24T13:29:18.296Z,82.36
2024-02-24T13:31:46.936Z,82.00
2024-02-24T13:34:16.036Z,82.45
2024-02-24T13:36:46.359Z,82.42
2024-02-24T13:39:14.787Z,82.45
2024-02-24T13:41:43.203Z,82.60
2024-02-24T13:44:14.390Z,82.55
2024-02-24T13:46:54.274Z,82.34
2024-02-24T13:49:22.872Z,82.49
2024-02-24T13:51:51.226Z,82.26
2024-02-24T13:54:20.293Z,81.51
2024-02-24T13:56:49.486Z,81.72
2024-02-24T13:59:17.968Z,81.85
2024-02-24T14:01:46.403Z,82.28
2024-02-24T14:04:14.972Z,82.15
2024-02-24T14:06:44.606Z,82.49
2024-02-24T14:09:13.101Z,82.81
2024-02-24T14:11:42.208Z,82.95
2024-02-24T14:14:10.602Z,82.82
2024-02-24T14:16:46.015Z,82.90
2024-02-24T14:19:14.710Z,83.00
2024-02-24T14:21:44.092Z,82.74
2024-02-24T14:24:12.481Z,82.67
2024-02-24T14:26:40.953Z,82.56
2024-02-24T14:29:09.346Z,82.39
2024-02-24T14:31:37.854Z,82.58
2024-02-24T14:34:06.358Z,82.72
2024-02-24T14:36:34.749Z,83.02
2024-02-24T14:39:06.069Z,83.08
2024-02-24T14:41:34.758Z,83.10
2024-02-24T14:44:03.120Z,83.09
2024-02-24T14:46:31.368Z,83.11
2024-02-24T14:48:59.866Z,83.02
2024-02-24T14:51:28.681Z,83.26
2024-02-24T14:53:57.048Z,83.11
2024-02-24T14:56:25.412Z,82.87
2024-02-24T14:58:53.725Z,82.95
2024-02-24T15:01:22.287Z,82.80
2024-02-24T15:03:50.855Z,82.59
2024-02-24T15:06:19.470Z,82.71
2024-02-24T15:08:48.088Z,82.64
2024-02-24T15:11:25.077Z,82.91
2024-02-24T15:13:53.432Z,83.05
2024-02-24T15:16:21.801Z,83.04
2024-02-24T15:18:50.214Z,83.28
2024-02-24T15:21:18.602Z,83.30
2024-02-24T15:23:47.036Z,83.61
2024-02-24T15:26:15.717Z,83.44
2024-02-24T15:28:44.052Z,83.47
2024-02-24T15:31:12.402Z,83.61
2024-02-24T15:33:40.897Z,83.62
2024-02-24T15:36:09.789Z,83.63
2024-02-24T15:38:38.145Z,83.64
2024-02-24T15:41:06.518Z,83.94
2024-02-24T15:43:34.797Z,83.83
2024-02-24T15:46:03.106Z,84.01
2024-02-24T15:48:31.484Z,83.96
2024-02-24T15:51:00.517Z,84.09
2024-02-24T15:53:28.921Z,84.74
2024-02-24T15:55:59.567Z,83.99
2024-02-24T15:58:31.212Z,84.06
2024-02-24T16:01:02.688Z,83.73
2024-02-24T16:03:31.493Z,81.53
2024-02-24T16:06:00.263Z,83.50
2024-02-24T16:08:32.693Z,83.28
2024-02-24T16:11:01.290Z,82.90
2024-02-24T16:13:29.897Z,82.85
2024-02-24T16:16:01.068Z,82.41
2024-02-24T16:18:30.198Z,81.79
2024-02-24T16:20:59.041Z,81.80
2024-02-24T16:23:27.632Z,81.15
2024-02-24T16:25:56.052Z,80.65
2024-02-24T16:28:25.137Z,80.14
2024-02-24T16:31:07.927Z,79.41
2024-02-24T16:33:36.545Z,78.85
2024-02-24T16:36:05.346Z,78.78
2024-02-24T16:38:37.492Z,77.41
2024-02-24T16:41:06.271Z,77.89
2024-02-24T16:43:35.384Z,78.01
2024-02-24T16:46:06.842Z,77.40
2024-02-24T16:48:40.377Z,76.29
2024-02-24T16:51:08.923Z,76.50
2024-02-24T16:54:06.612Z,74.42
2024-02-24T16:56:35.383Z,75.94
2024-02-24T16:59:12.609Z,73.71
2024-02-24T17:02:04.488Z,74.83
2024-02-24T17:04:32.948Z,74.09
2024-02-24T17:07:02.071Z,72.33
2024-02-24T17:09:30.877Z,71.55
2024-02-24T17:11:59.420Z,70.20
2024-02-24T17:14:27.912Z,69.04
2024-02-24T17:16:56.465Z,68.17
2024-02-24T17:19:25.101Z,67.75
2024-02-24T17:22:04.594Z,67.21
2024-02-24T17:24:46.024Z,63.88
2024-02-24T17:27:14.345Z,64.19
2024-02-24T17:29:45.614Z,62.85
2024-02-24T17:32:15.281Z,63.32
2024-02-24T17:35:06.010Z,63.17
2024-02-24T17:37:37.433Z,61.49
2024-02-24T17:40:09.109Z,60.98
2024-02-24T17:42:37.649Z,62.05
2024-02-24T17:45:08.962Z,61.41
2024-02-24T17:47:37.753Z,60.48
2024-02-24T17:50:06.997Z,58.44
2024-02-24T17:52:35.499Z,58.79
2024-02-24T17:55:09.884Z,58.94
2024-02-24T17:57:38.683Z,58.15
2024-02-24T18:00:10.613Z,59.34
2024-02-24T18:02:42.150Z,56.75
2024-02-24T18:05:11.868Z,57.01
2024-02-24T18:07:40.802Z,56.50
2024-02-24T18:10:09.475Z,55.93
2024-02-24T18:12:38.123Z,56.77
2024-02-24T18:15:06.962Z,55.58
2024-02-24T18:17:35.556Z,55.71
2024-02-24T18:20:04.136Z,55.79
2024-02-24T18:22:32.401Z,54.81
2024-02-24T18:25:01.400Z,55.14
2024-02-24T18:27:29.963Z,54.08
2024-02-24T18:30:01.681Z,54.84
2024-02-24T18:32:32.510Z,54.57
2024-02-24T18:35:00.954Z,54.03
2024-02-24T18:37:29.304Z,55.08
2024-02-24T18:40:03.963Z,54.78
2024-02-24T18:42:32.489Z,52.94
2024-02-24T18:45:06.157Z,52.11
2024-02-24T18:47:34.643Z,52.85
2024-02-24T18:50:03.232Z,52.85
2024-02-24T18:52:31.607Z,53.36
2024-02-24T18:55:09.074Z,52.82
2024-02-24T18:57:37.923Z,52.40
2024-02-24T19:00:13.466Z,52.14
2024-02-24T19:02:44.041Z,51.57
2024-02-24T19:05:13.360Z,51.61
2024-02-24T19:07:53.026Z,51.94
2024-02-24T19:13:37.687Z,49.27
2024-02-24T19:19:38.430Z,53.31
2024-02-24T19:22:45.390Z,52.18
2024-02-24T19:25:20.442Z,52.22
2024-02-24T19:28:01.427Z,53.40
2024-02-24T19:30:36.566Z,53.12
2024-02-24T19:33:10.759Z,51.43
2024-02-24T19:36:01.373Z,49.84
2024-02-24T19:38:36.261Z,48.62
2024-02-24T19:43:51.924Z,49.75
2024-02-24T19:46:33.073Z,48.97
2024-02-24T19:49:04.227Z,49.62
2024-02-24T19:54:32.737Z,49.98
2024-02-24T19:57:07.974Z,50.35
2024-02-24T19:59:43.611Z,50.08
2024-02-24T20:02:18.503Z,50.38
2024-02-24T20:04:46.916Z,49.37
2024-02-24T20:10:07.000Z,48.68
2024-02-24T20:12:38.212Z,47.69
2024-02-24T20:15:07.043Z,47.93
2024-02-24T20:17:35.458Z,46.67
2024-02-24T20:20:07.451Z,46.84
2024-02-24T20:22:35.789Z,47.39
2024-02-24T20:25:05.145Z,46.03
2024-02-24T20:27:33.748Z,45.75
2024-02-24T20:30:05.409Z,44.87
2024-02-24T20:32:36.558Z,45.53
2024-02-24T20:35:05.712Z,44.91
2024-02-24T20:37:38.170Z,44.20
2024-02-24T20:40:07.131Z,44.39
2024-02-24T20:42:35.526Z,44.60
2024-02-24T20:45:08.576Z,44.34
2024-02-24T20:47:37.183Z,45.58
2024-02-24T20:50:13.010Z,45.20
2024-02-24T20:52:42.063Z,45.24
2024-02-24T20:55:12.397Z,45.38
2024-02-24T20:57:46.906Z,46.10
2024-02-24T21:00:16.205Z,45.99
2024-02-24T21:02:45.286Z,45.59
2024-02-24T21:05:13.840Z,44.92
2024-02-24T21:07:42.271Z,45.25
2024-02-24T21:10:42.851Z,44.91
2024-02-24T21:16:04.030Z,44.86
2024-02-24T21:18:35.593Z,44.52
2024-02-24T21:21:05.574Z,44.65
2024-02-24T21:23:36.662Z,43.35
2024-02-24T21:26:10.047Z,42.26
2024-02-24T21:28:38.490Z,41.17
2024-02-24T21:31:06.838Z,42.04
2024-02-24T21:33:45.108Z,42.99
2024-02-24T21:36:23.912Z,43.02
2024-02-24T21:38:55.218Z,42.93
2024-02-24T21:41:37.930Z,41.78
2024-02-24T21:44:42.856Z,42.25
2024-02-24T21:53:04.188Z,44.02
2024-02-24T21:55:46.723Z,45.24
2024-02-24T21:58:48.566Z,44.26
2024-02-24T22:01:35.575Z,44.95
2024-02-24T22:12:37.070Z,43.46
2024-02-24T22:18:35.401Z,43.58
2024-02-24T22:21:07.172Z,43.49
2024-02-24T22:23:38.584Z,43.27
2024-02-24T22:26:07.741Z,43.79
2024-02-24T22:28:39.491Z,42.92
2024-02-24T22:31:07.858Z,42.76
2024-02-24T22:33:42.877Z,42.31
2024-02-24T22:36:13.434Z,40.42
2024-02-24T22:38:41.916Z,40.33
2024-02-24T22:41:10.313Z,39.60
2024-02-24T22:43:38.779Z,40.65
2024-02-24T22:46:09.004Z,39.80
2024-02-24T22:48:37.434Z,40.80
2024-02-24T22:53:41.994Z,39.24
2024-02-24T22:56:10.328Z,38.69
2024-02-24T22:58:38.676Z,39.05
2024-02-24T23:01:06.977Z,38.87
2024-02-24T23:03:35.782Z,39.64
2024-02-24T23:06:04.479Z,40.16
2024-02-24T23:08:32.844Z,38.60
2024-02-24T23:11:02.481Z,38.72
2024-02-24T23:13:30.916Z,38.78
2024-02-24T23:15:59.359Z,39.16
2024-02-24T23:18:28.456Z,39.63
2024-02-24T23:20:57.215Z,39.91
2024-02-24T23:23:27.163Z,40.35
2024-02-24T23:25:55.842Z,41.12
2024-02-24T23:28:24.424Z,41.32
2024-02-24T23:30:52.838Z,41.76
2024-02-24T23:33:21.347Z,42.38
2024-02-24T23:35:56.243Z,41.72
2024-02-24T23:38:24.538Z,42.72
2024-02-24T23:42:01.060Z,42.18
2024-02-24T23:45:07.815Z,43.17
2024-02-24T23:54:07.352Z,42.15
2024-02-24T23:56:39.212Z,43.19
